UAL2389 KLGA-KORD
Flight info
| Callsign | UAL2389 |
|---|---|
| Flight time | 1h 54m |
| Altitude | 38000 |
| Route | COATE Q436 KAYYS WYNDE3 |
| Aircraft | B38M/M-SDE1FGHILORVWXY/HB1 |
Departure
| Time | 2026-05-05 01:17 |
|---|---|
| Airport | LaGuardia Airport (KLGA) |
Arrival
| Time | 2026-05-05 03:11 |
|---|---|
| Airport | Chicago O'Hare International Airport (KORD) |
| Time | Latitude | Longitude | Altitude | Speed | Heading |
|---|---|---|---|---|---|
| 2026-05-05 00:29 | 40.77439 | -73.86841 | 22 ft | 0 kts | 264° |
| 2026-05-05 01:07 | 40.77440 | -73.86826 | 3 ft | 4 kts | 268° |
| 2026-05-05 01:07 | 40.77439 | -73.86791 | 22 ft | 4 kts | 279° |
| 2026-05-05 01:07 | 40.77432 | -73.86757 | 22 ft | 4 kts | 291° |
| 2026-05-05 01:08 | 40.77421 | -73.86725 | 22 ft | 4 kts | 303° |
| 2026-05-05 01:08 | 40.77404 | -73.86698 | 22 ft | 4 kts | 318° |
| 2026-05-05 01:08 | 40.77398 | -73.86691 | 24 ft | 0 kts | 321° |
| 2026-05-05 01:12 | 40.77400 | -73.86693 | 22 ft | 1 kts | 321° |
| 2026-05-05 01:12 | 40.77415 | -73.86697 | 23 ft | 4 kts | 5° |
| 2026-05-05 01:12 | 40.77467 | -73.86688 | 15 ft | 13 kts | 345° |
| 2026-05-05 01:12 | 40.77534 | -73.86779 | 17 ft | 15 kts | 306° |
| 2026-05-05 01:13 | 40.77620 | -73.86828 | 14 ft | 15 kts | 327° |
| 2026-05-05 01:13 | 40.77683 | -73.86946 | 15 ft | 17 kts | 302° |
| 2026-05-05 01:13 | 40.77745 | -73.87079 | 16 ft | 18 kts | 301° |
| 2026-05-05 01:13 | 40.77813 | -73.87222 | 16 ft | 19 kts | 303° |
| 2026-05-05 01:14 | 40.77888 | -73.87376 | 17 ft | 20 kts | 302° |
| 2026-05-05 01:14 | 40.77965 | -73.87536 | 19 ft | 21 kts | 301° |
| 2026-05-05 01:14 | 40.78045 | -73.87709 | 18 ft | 23 kts | 301° |
| 2026-05-05 01:14 | 40.78146 | -73.87858 | 28 ft | 22 kts | 336° |
| 2026-05-05 01:15 | 40.78207 | -73.87787 | 22 ft | 13 kts | 123° |
| 2026-05-05 01:15 | 40.78199 | -73.87772 | 22 ft | 0 kts | 125° |
| 2026-05-05 01:16 | 40.78192 | -73.87758 | 21 ft | 16 kts | 125° |
| 2026-05-05 01:16 | 40.77974 | -73.87317 | 17 ft | 96 kts | 123° |
| 2026-05-05 01:16 | 40.77488 | -73.86313 | 20 ft | 160 kts | 122° |
| 2026-05-05 01:17 | 40.76867 | -73.84951 | 427 ft | 181 kts | 126° |
| 2026-05-05 01:17 | 40.76133 | -73.83511 | 1046 ft | 196 kts | 133° |
| 2026-05-05 01:17 | 40.75149 | -73.82293 | 1827 ft | 199 kts | 156° |
| 2026-05-05 01:17 | 40.73792 | -73.81663 | 2386 ft | 212 kts | 182° |
| 2026-05-05 01:18 | 40.72335 | -73.81789 | 3403 ft | 208 kts | 201° |
| 2026-05-05 01:18 | 40.71151 | -73.82800 | 4393 ft | 206 kts | 230° |
| 2026-05-05 01:18 | 40.70204 | -73.84268 | 5292 ft | 214 kts | 230° |
| 2026-05-05 01:18 | 40.69205 | -73.85765 | 6245 ft | 220 kts | 231° |
| 2026-05-05 01:19 | 40.68196 | -73.87312 | 7106 ft | 227 kts | 236° |
| 2026-05-05 01:19 | 40.67598 | -73.89272 | 7658 ft | 242 kts | 266° |
| 2026-05-05 01:19 | 40.67880 | -73.91477 | 8244 ft | 259 kts | 294° |
| 2026-05-05 01:19 | 40.68815 | -73.93560 | 9000 ft | 270 kts | 300° |
| 2026-05-05 01:20 | 40.69931 | -73.95545 | 8892 ft | 266 kts | 308° |
| 2026-05-05 01:20 | 40.71109 | -73.97434 | 9010 ft | 267 kts | 307° |
| 2026-05-05 01:20 | 40.72276 | -73.99341 | 8978 ft | 268 kts | 307° |
| 2026-05-05 01:20 | 40.73443 | -74.01271 | 9593 ft | 268 kts | 307° |
| 2026-05-05 01:21 | 40.74607 | -74.03210 | 10483 ft | 274 kts | 306° |
| 2026-05-05 01:21 | 40.75823 | -74.05250 | 10939 ft | 293 kts | 306° |
| 2026-05-05 01:21 | 40.77128 | -74.07441 | 11310 ft | 314 kts | 306° |
| 2026-05-05 01:21 | 40.78517 | -74.09779 | 11687 ft | 332 kts | 306° |
| 2026-05-05 01:22 | 40.79971 | -74.12229 | 12235 ft | 344 kts | 306° |
| 2026-05-05 01:22 | 40.81429 | -74.14691 | 13063 ft | 346 kts | 305° |
| 2026-05-05 01:22 | 40.82917 | -74.17203 | 13813 ft | 350 kts | 305° |
| 2026-05-05 01:22 | 40.84425 | -74.19750 | 14494 ft | 353 kts | 305° |
| 2026-05-05 01:23 | 40.85943 | -74.22317 | 15171 ft | 357 kts | 305° |
| 2026-05-05 01:23 | 40.87478 | -74.24916 | 15836 ft | 360 kts | 305° |
| 2026-05-05 01:23 | 40.89024 | -74.27536 | 16482 ft | 364 kts | 305° |
| 2026-05-05 01:23 | 40.90587 | -74.30186 | 17131 ft | 367 kts | 305° |
| 2026-05-05 01:24 | 40.92162 | -74.32858 | 17782 ft | 370 kts | 305° |
| 2026-05-05 01:24 | 40.93753 | -74.35561 | 18369 ft | 374 kts | 306° |
| 2026-05-05 01:24 | 40.95357 | -74.38289 | 18896 ft | 378 kts | 306° |
| 2026-05-05 01:24 | 40.96955 | -74.41007 | 19427 ft | 380 kts | 306° |
| 2026-05-05 01:25 | 40.98587 | -74.43786 | 19967 ft | 383 kts | 306° |
| 2026-05-05 01:25 | 41.00227 | -74.46582 | 20483 ft | 387 kts | 306° |
| 2026-05-05 01:25 | 41.01880 | -74.49404 | 20996 ft | 390 kts | 306° |
| 2026-05-05 01:25 | 41.03548 | -74.52252 | 21516 ft | 392 kts | 306° |
| 2026-05-05 01:26 | 41.05222 | -74.55115 | 22031 ft | 395 kts | 306° |
| 2026-05-05 01:26 | 41.06916 | -74.58012 | 22534 ft | 398 kts | 306° |
| 2026-05-05 01:26 | 41.08616 | -74.60925 | 23033 ft | 401 kts | 306° |
| 2026-05-05 01:26 | 41.10329 | -74.63862 | 23524 ft | 404 kts | 307° |
| 2026-05-05 01:27 | 41.12029 | -74.66779 | 23919 ft | 407 kts | 307° |
| 2026-05-05 01:27 | 41.13716 | -74.69793 | 24323 ft | 408 kts | 301° |
| 2026-05-05 01:27 | 41.15153 | -74.73049 | 24719 ft | 410 kts | 300° |
| 2026-05-05 01:27 | 41.16594 | -74.76335 | 25111 ft | 413 kts | 300° |
| 2026-05-05 01:28 | 41.18008 | -74.79576 | 25494 ft | 415 kts | 299° |
| 2026-05-05 01:28 | 41.19456 | -74.82900 | 25913 ft | 417 kts | 299° |
| 2026-05-05 01:28 | 41.20906 | -74.86236 | 26309 ft | 419 kts | 299° |
| 2026-05-05 01:28 | 41.22365 | -74.89597 | 26668 ft | 421 kts | 299° |
| 2026-05-05 01:29 | 41.23751 | -74.92794 | 27013 ft | 423 kts | 299° |
| 2026-05-05 01:29 | 41.25220 | -74.96184 | 27366 ft | 425 kts | 299° |
| 2026-05-05 01:29 | 41.26700 | -74.99603 | 27714 ft | 428 kts | 299° |
| 2026-05-05 01:29 | 41.28184 | -75.03038 | 28067 ft | 430 kts | 299° |
| 2026-05-05 01:30 | 41.29676 | -75.06493 | 28407 ft | 432 kts | 299° |
| 2026-05-05 01:30 | 41.31157 | -75.09926 | 28700 ft | 435 kts | 299° |
| 2026-05-05 01:30 | 41.32664 | -75.13424 | 29022 ft | 437 kts | 299° |
| 2026-05-05 01:30 | 41.34161 | -75.16904 | 29442 ft | 437 kts | 299° |
| 2026-05-05 01:31 | 41.35667 | -75.20408 | 29918 ft | 436 kts | 299° |
| 2026-05-05 01:31 | 41.37171 | -75.23912 | 30311 ft | 435 kts | 299° |
| 2026-05-05 01:31 | 41.38668 | -75.27402 | 30727 ft | 434 kts | 299° |
| 2026-05-05 01:31 | 41.40159 | -75.30885 | 31123 ft | 432 kts | 299° |
| 2026-05-05 01:32 | 41.41644 | -75.34356 | 31540 ft | 430 kts | 300° |
| 2026-05-05 01:32 | 41.43123 | -75.37818 | 31922 ft | 429 kts | 300° |
| 2026-05-05 01:32 | 41.44595 | -75.41265 | 32323 ft | 427 kts | 300° |
| 2026-05-05 01:32 | 41.46042 | -75.44659 | 32712 ft | 426 kts | 300° |
| 2026-05-05 01:33 | 41.47494 | -75.48149 | 33079 ft | 425 kts | 295° |
| 2026-05-05 01:33 | 41.48566 | -75.51757 | 33459 ft | 424 kts | 292° |
| 2026-05-05 01:33 | 41.49629 | -75.55416 | 33877 ft | 422 kts | 292° |
| 2026-05-05 01:33 | 41.50679 | -75.59049 | 34291 ft | 418 kts | 292° |
| 2026-05-05 01:34 | 41.51720 | -75.62667 | 34605 ft | 417 kts | 291° |
| 2026-05-05 01:34 | 41.52756 | -75.66277 | 34919 ft | 416 kts | 291° |
| 2026-05-05 01:34 | 41.53788 | -75.69880 | 35225 ft | 415 kts | 291° |
| 2026-05-05 01:34 | 41.54817 | -75.73473 | 35521 ft | 414 kts | 291° |
| 2026-05-05 01:35 | 41.55841 | -75.77058 | 35820 ft | 413 kts | 291° |
| 2026-05-05 01:35 | 41.56847 | -75.80584 | 36081 ft | 412 kts | 291° |
| 2026-05-05 01:35 | 41.57865 | -75.84158 | 36360 ft | 411 kts | 290° |
| 2026-05-05 01:35 | 41.58878 | -75.87720 | 36632 ft | 410 kts | 290° |
| 2026-05-05 01:36 | 41.59887 | -75.91273 | 36887 ft | 409 kts | 290° |
| 2026-05-05 01:36 | 41.60895 | -75.94828 | 37134 ft | 408 kts | 290° |
| 2026-05-05 01:36 | 41.61898 | -75.98369 | 37380 ft | 407 kts | 290° |
| 2026-05-05 01:36 | 41.62898 | -76.01907 | 37613 ft | 407 kts | 290° |
| 2026-05-05 01:37 | 41.63897 | -76.05443 | 37809 ft | 406 kts | 290° |
| 2026-05-05 01:37 | 41.64894 | -76.08980 | 37829 ft | 406 kts | 290° |
| 2026-05-05 01:37 | 41.66862 | -76.15972 | 37811 ft | 404 kts | 289° |
| 2026-05-05 01:38 | 41.68838 | -76.23011 | 37806 ft | 404 kts | 289° |
| 2026-05-05 01:38 | 41.70810 | -76.30058 | 37812 ft | 404 kts | 289° |
| 2026-05-05 01:39 | 41.72777 | -76.37108 | 37802 ft | 404 kts | 289° |
| 2026-05-05 01:39 | 41.74739 | -76.44158 | 37807 ft | 404 kts | 289° |
| 2026-05-05 01:40 | 41.76699 | -76.51217 | 37779 ft | 405 kts | 289° |
| 2026-05-05 01:40 | 41.78648 | -76.58254 | 37793 ft | 406 kts | 289° |
| 2026-05-05 01:41 | 41.80605 | -76.65339 | 37778 ft | 405 kts | 289° |
| 2026-05-05 01:41 | 41.82557 | -76.72429 | 37766 ft | 405 kts | 289° |
| 2026-05-05 01:42 | 41.84503 | -76.79515 | 37767 ft | 405 kts | 289° |
| 2026-05-05 01:42 | 41.86432 | -76.86559 | 37773 ft | 405 kts | 289° |
| 2026-05-05 01:43 | 41.88363 | -76.93636 | 37767 ft | 403 kts | 288° |
| 2026-05-05 01:43 | 41.90280 | -77.00699 | 37772 ft | 403 kts | 289° |
| 2026-05-05 01:44 | 41.92148 | -77.07602 | 37778 ft | 403 kts | 288° |
| 2026-05-05 01:44 | 41.94055 | -77.14668 | 37776 ft | 402 kts | 288° |
| 2026-05-05 01:45 | 41.95943 | -77.21684 | 37774 ft | 403 kts | 288° |
| 2026-05-05 01:45 | 41.97838 | -77.28743 | 37778 ft | 400 kts | 288° |
| 2026-05-05 01:46 | 41.99719 | -77.35772 | 37778 ft | 400 kts | 288° |
| 2026-05-05 01:46 | 42.01562 | -77.42606 | 37779 ft | 400 kts | 289° |
| 2026-05-05 01:47 | 42.03474 | -77.49617 | 37783 ft | 400 kts | 288° |
| 2026-05-05 01:47 | 42.05365 | -77.56578 | 37792 ft | 400 kts | 288° |
| 2026-05-05 01:48 | 42.07270 | -77.63610 | 37797 ft | 400 kts | 288° |
| 2026-05-05 01:48 | 42.09170 | -77.70642 | 37801 ft | 400 kts | 288° |
| 2026-05-05 01:49 | 42.11007 | -77.77463 | 37795 ft | 399 kts | 288° |
| 2026-05-05 01:49 | 42.12883 | -77.84447 | 37813 ft | 400 kts | 288° |
| 2026-05-05 01:50 | 42.14769 | -77.91492 | 37811 ft | 400 kts | 288° |
| 2026-05-05 01:50 | 42.16651 | -77.98538 | 37822 ft | 400 kts | 288° |
| 2026-05-05 01:51 | 42.18527 | -78.05581 | 37812 ft | 399 kts | 288° |
| 2026-05-05 01:51 | 42.20292 | -78.12229 | 37799 ft | 399 kts | 288° |
| 2026-05-05 01:52 | 42.22101 | -78.19058 | 37793 ft | 399 kts | 288° |
| 2026-05-05 01:52 | 42.23962 | -78.26105 | 37795 ft | 399 kts | 287° |
| 2026-05-05 01:53 | 42.25728 | -78.33205 | 37794 ft | 399 kts | 287° |
| 2026-05-05 01:53 | 42.27481 | -78.40257 | 37795 ft | 399 kts | 287° |
| 2026-05-05 01:54 | 42.29187 | -78.47134 | 37793 ft | 399 kts | 287° |
| 2026-05-05 01:54 | 42.30944 | -78.54235 | 37791 ft | 399 kts | 287° |
| 2026-05-05 01:55 | 42.32697 | -78.61347 | 37786 ft | 399 kts | 286° |
| 2026-05-05 01:55 | 42.34435 | -78.68414 | 37784 ft | 399 kts | 286° |
| 2026-05-05 01:56 | 42.36179 | -78.75528 | 37763 ft | 398 kts | 286° |
| 2026-05-05 01:56 | 42.37894 | -78.82546 | 37758 ft | 398 kts | 286° |
| 2026-05-05 01:57 | 42.39624 | -78.89668 | 37748 ft | 398 kts | 284° |
| 2026-05-05 01:57 | 42.40086 | -78.93336 | 37753 ft | 395 kts | 273° |
| 2026-05-05 01:57 | 42.40335 | -78.97042 | 37721 ft | 397 kts | 275° |
| 2026-05-05 01:58 | 42.40858 | -79.04423 | 37731 ft | 397 kts | 275° |
| 2026-05-05 01:58 | 42.41334 | -79.11581 | 37719 ft | 398 kts | 274° |
| 2026-05-05 01:59 | 42.41822 | -79.19047 | 37721 ft | 398 kts | 274° |
| 2026-05-05 01:59 | 42.42297 | -79.26394 | 37722 ft | 398 kts | 274° |
| 2026-05-05 02:00 | 42.42774 | -79.33860 | 37710 ft | 398 kts | 274° |
| 2026-05-05 02:00 | 42.43216 | -79.40841 | 37721 ft | 398 kts | 274° |
| 2026-05-05 02:01 | 42.43685 | -79.48316 | 37738 ft | 400 kts | 274° |
| 2026-05-05 02:01 | 42.44119 | -79.55309 | 37732 ft | 400 kts | 274° |
| 2026-05-05 02:02 | 42.44572 | -79.62690 | 37727 ft | 400 kts | 274° |
| 2026-05-05 02:02 | 42.45009 | -79.69883 | 37720 ft | 400 kts | 274° |
| 2026-05-05 02:03 | 42.45455 | -79.77294 | 37720 ft | 400 kts | 274° |
| 2026-05-05 02:03 | 42.45896 | -79.84696 | 37720 ft | 402 kts | 274° |
| 2026-05-05 02:04 | 42.46323 | -79.91970 | 37714 ft | 402 kts | 273° |
| 2026-05-05 02:04 | 42.46738 | -79.99117 | 37715 ft | 402 kts | 273° |
| 2026-05-05 02:05 | 42.47165 | -80.06533 | 37710 ft | 402 kts | 273° |
| 2026-05-05 02:05 | 42.47593 | -80.14062 | 37708 ft | 402 kts | 273° |
| 2026-05-05 02:06 | 42.48015 | -80.21564 | 37707 ft | 401 kts | 273° |
| 2026-05-05 02:06 | 42.48432 | -80.29080 | 37707 ft | 400 kts | 273° |
| 2026-05-05 02:07 | 42.48845 | -80.36608 | 37702 ft | 400 kts | 273° |
| 2026-05-05 02:07 | 42.49253 | -80.44134 | 37702 ft | 400 kts | 273° |
| 2026-05-05 02:08 | 42.49656 | -80.51656 | 37696 ft | 401 kts | 273° |
| 2026-05-05 02:08 | 42.50052 | -80.59127 | 37695 ft | 399 kts | 273° |
| 2026-05-05 02:09 | 42.50444 | -80.66609 | 37698 ft | 398 kts | 272° |
| 2026-05-05 02:09 | 42.50685 | -80.74107 | 37699 ft | 398 kts | 271° |
| 2026-05-05 02:10 | 42.50923 | -80.81602 | 37702 ft | 398 kts | 271° |
| 2026-05-05 02:10 | 42.51157 | -80.89051 | 37702 ft | 398 kts | 271° |
| 2026-05-05 02:11 | 42.51388 | -80.96534 | 37697 ft | 396 kts | 271° |
| 2026-05-05 02:11 | 42.51613 | -81.03994 | 37697 ft | 396 kts | 271° |
| 2026-05-05 02:12 | 42.51943 | -81.15188 | 37703 ft | 396 kts | 271° |
| 2026-05-05 02:13 | 42.52155 | -81.22599 | 37692 ft | 396 kts | 271° |
| 2026-05-05 02:13 | 42.52663 | -81.30020 | 37720 ft | 396 kts | 277° |
| 2026-05-05 02:14 | 42.53491 | -81.37408 | 37677 ft | 396 kts | 277° |
| 2026-05-05 02:14 | 42.54331 | -81.44792 | 37676 ft | 396 kts | 277° |
| 2026-05-05 02:15 | 42.55162 | -81.52120 | 37671 ft | 396 kts | 277° |
| 2026-05-05 02:15 | 42.55995 | -81.59512 | 37672 ft | 396 kts | 277° |
| 2026-05-05 02:16 | 42.56823 | -81.66900 | 37662 ft | 396 kts | 277° |
| 2026-05-05 02:16 | 42.57645 | -81.74273 | 37651 ft | 395 kts | 277° |
| 2026-05-05 02:17 | 42.58462 | -81.81645 | 37660 ft | 395 kts | 276° |
| 2026-05-05 02:17 | 42.59268 | -81.88968 | 37663 ft | 395 kts | 276° |
| 2026-05-05 02:18 | 42.60075 | -81.96343 | 37656 ft | 395 kts | 276° |
| 2026-05-05 02:18 | 42.60878 | -82.03724 | 37656 ft | 395 kts | 276° |
| 2026-05-05 02:19 | 42.61675 | -82.11104 | 37645 ft | 395 kts | 276° |
| 2026-05-05 02:19 | 42.62463 | -82.18433 | 37650 ft | 395 kts | 276° |
| 2026-05-05 02:20 | 42.63250 | -82.25808 | 37645 ft | 395 kts | 276° |
| 2026-05-05 02:20 | 42.64033 | -82.33193 | 37649 ft | 395 kts | 276° |
| 2026-05-05 02:21 | 42.64812 | -82.40573 | 37672 ft | 395 kts | 276° |
| 2026-05-05 02:21 | 42.65580 | -82.47885 | 37655 ft | 393 kts | 276° |
| 2026-05-05 02:22 | 42.66343 | -82.55237 | 37647 ft | 393 kts | 276° |
| 2026-05-05 02:22 | 42.67103 | -82.62591 | 37657 ft | 393 kts | 276° |
| 2026-05-05 02:23 | 42.67859 | -82.69948 | 37649 ft | 393 kts | 276° |
| 2026-05-05 02:23 | 42.68606 | -82.77304 | 37647 ft | 393 kts | 276° |
| 2026-05-05 02:24 | 42.69342 | -82.84611 | 37645 ft | 393 kts | 275° |
| 2026-05-05 02:24 | 42.70079 | -82.91974 | 37362 ft | 393 kts | 275° |
| 2026-05-05 02:24 | 42.70444 | -82.95646 | 37005 ft | 392 kts | 275° |
| 2026-05-05 02:25 | 42.70809 | -82.99327 | 36652 ft | 393 kts | 275° |
| 2026-05-05 02:25 | 42.71218 | -83.03005 | 36304 ft | 394 kts | 277° |
| 2026-05-05 02:25 | 42.71661 | -83.06683 | 35951 ft | 395 kts | 277° |
| 2026-05-05 02:25 | 42.72098 | -83.10378 | 35591 ft | 396 kts | 276° |
| 2026-05-05 02:26 | 42.72527 | -83.14033 | 35241 ft | 397 kts | 276° |
| 2026-05-05 02:26 | 42.72958 | -83.17728 | 34887 ft | 398 kts | 276° |
| 2026-05-05 02:26 | 42.73391 | -83.21452 | 34530 ft | 399 kts | 276° |
| 2026-05-05 02:26 | 42.73825 | -83.25187 | 34183 ft | 400 kts | 276° |
| 2026-05-05 02:27 | 42.74257 | -83.28928 | 33845 ft | 401 kts | 276° |
| 2026-05-05 02:27 | 42.74690 | -83.32683 | 33483 ft | 402 kts | 276° |
| 2026-05-05 02:27 | 42.75123 | -83.36445 | 33098 ft | 403 kts | 276° |
| 2026-05-05 02:27 | 42.75556 | -83.40222 | 32715 ft | 405 kts | 276° |
| 2026-05-05 02:28 | 42.75984 | -83.43961 | 32348 ft | 406 kts | 276° |
| 2026-05-05 02:28 | 42.76418 | -83.47769 | 31942 ft | 408 kts | 276° |
| 2026-05-05 02:28 | 42.76852 | -83.51589 | 31572 ft | 409 kts | 276° |
| 2026-05-05 02:28 | 42.77285 | -83.55418 | 31221 ft | 410 kts | 276° |
| 2026-05-05 02:29 | 42.77719 | -83.59257 | 30860 ft | 411 kts | 276° |
| 2026-05-05 02:29 | 42.78153 | -83.63112 | 30503 ft | 412 kts | 276° |
| 2026-05-05 02:29 | 42.78586 | -83.66975 | 30152 ft | 413 kts | 276° |
| 2026-05-05 02:29 | 42.79019 | -83.70843 | 29803 ft | 414 kts | 276° |
| 2026-05-05 02:30 | 42.79453 | -83.74733 | 29416 ft | 416 kts | 276° |
| 2026-05-05 02:30 | 42.79878 | -83.78560 | 29024 ft | 416 kts | 276° |
| 2026-05-05 02:30 | 42.80311 | -83.82460 | 28614 ft | 417 kts | 276° |
| 2026-05-05 02:30 | 42.80743 | -83.86372 | 28218 ft | 418 kts | 276° |
| 2026-05-05 02:31 | 42.81175 | -83.90291 | 27831 ft | 419 kts | 276° |
| 2026-05-05 02:31 | 42.81607 | -83.94221 | 27455 ft | 419 kts | 276° |
| 2026-05-05 02:31 | 42.82039 | -83.98154 | 27070 ft | 420 kts | 276° |
| 2026-05-05 02:31 | 42.82469 | -84.02086 | 26696 ft | 421 kts | 276° |
| 2026-05-05 02:32 | 42.82900 | -84.06033 | 26327 ft | 421 kts | 276° |
| 2026-05-05 02:32 | 42.83329 | -84.09982 | 25963 ft | 422 kts | 276° |
| 2026-05-05 02:32 | 42.83753 | -84.13889 | 25603 ft | 423 kts | 276° |
| 2026-05-05 02:32 | 42.84181 | -84.17857 | 25242 ft | 424 kts | 276° |
| 2026-05-05 02:33 | 42.84608 | -84.21827 | 24893 ft | 422 kts | 276° |
| 2026-05-05 02:33 | 42.85032 | -84.25777 | 24540 ft | 420 kts | 276° |
| 2026-05-05 02:33 | 42.85452 | -84.29702 | 24206 ft | 418 kts | 276° |
| 2026-05-05 02:33 | 42.85869 | -84.33614 | 23864 ft | 416 kts | 276° |
| 2026-05-05 02:34 | 42.86282 | -84.37501 | 23513 ft | 413 kts | 276° |
| 2026-05-05 02:34 | 42.86691 | -84.41368 | 23214 ft | 411 kts | 276° |
| 2026-05-05 02:34 | 42.87091 | -84.45164 | 22840 ft | 409 kts | 276° |
| 2026-05-05 02:34 | 42.87495 | -84.48998 | 22454 ft | 407 kts | 276° |
| 2026-05-05 02:35 | 42.87894 | -84.52807 | 22077 ft | 405 kts | 276° |
| 2026-05-05 02:35 | 42.88274 | -84.56599 | 21700 ft | 402 kts | 273° |
| 2026-05-05 02:35 | 42.88122 | -84.60373 | 21329 ft | 398 kts | 262° |
| 2026-05-05 02:35 | 42.87781 | -84.64115 | 20961 ft | 397 kts | 262° |
| 2026-05-05 02:36 | 42.87172 | -84.67764 | 20602 ft | 395 kts | 250° |
| 2026-05-05 02:36 | 42.85950 | -84.71107 | 20425 ft | 396 kts | 240° |
| 2026-05-05 02:36 | 42.84556 | -84.74339 | 20225 ft | 395 kts | 242° |
| 2026-05-05 02:36 | 42.83227 | -84.77551 | 20001 ft | 394 kts | 243° |
| 2026-05-05 02:37 | 42.81900 | -84.80810 | 19826 ft | 393 kts | 243° |
| 2026-05-05 02:37 | 42.80587 | -84.84066 | 19645 ft | 392 kts | 243° |
| 2026-05-05 02:37 | 42.79282 | -84.87318 | 19468 ft | 391 kts | 243° |
| 2026-05-05 02:37 | 42.77980 | -84.90564 | 19282 ft | 390 kts | 243° |
| 2026-05-05 02:38 | 42.76681 | -84.93804 | 19116 ft | 390 kts | 243° |
| 2026-05-05 02:38 | 42.75386 | -84.97032 | 18938 ft | 389 kts | 243° |
| 2026-05-05 02:38 | 42.74090 | -85.00257 | 18771 ft | 388 kts | 243° |
| 2026-05-05 02:38 | 42.72814 | -85.03430 | 18600 ft | 388 kts | 243° |
| 2026-05-05 02:39 | 42.71520 | -85.06645 | 18445 ft | 387 kts | 243° |
| 2026-05-05 02:39 | 42.70231 | -85.09842 | 18274 ft | 386 kts | 243° |
| 2026-05-05 02:39 | 42.68941 | -85.13039 | 18101 ft | 385 kts | 243° |
| 2026-05-05 02:39 | 42.67655 | -85.16224 | 17942 ft | 384 kts | 243° |
| 2026-05-05 02:40 | 42.66367 | -85.19409 | 17754 ft | 384 kts | 243° |
| 2026-05-05 02:40 | 42.65084 | -85.22578 | 17560 ft | 383 kts | 243° |
| 2026-05-05 02:40 | 42.63800 | -85.25748 | 17372 ft | 382 kts | 243° |
| 2026-05-05 02:40 | 42.62537 | -85.28861 | 17185 ft | 381 kts | 243° |
| 2026-05-05 02:41 | 42.61257 | -85.32011 | 16992 ft | 381 kts | 243° |
| 2026-05-05 02:41 | 42.59991 | -85.35121 | 16767 ft | 369 kts | 243° |
| 2026-05-05 02:41 | 42.58771 | -85.38113 | 16547 ft | 357 kts | 243° |
| 2026-05-05 02:41 | 42.57586 | -85.41015 | 16331 ft | 346 kts | 243° |
| 2026-05-05 02:42 | 42.56437 | -85.43827 | 16116 ft | 336 kts | 243° |
| 2026-05-05 02:42 | 42.55320 | -85.46557 | 15902 ft | 327 kts | 243° |
| 2026-05-05 02:42 | 42.54259 | -85.49151 | 15685 ft | 319 kts | 243° |
| 2026-05-05 02:42 | 42.53197 | -85.51744 | 15472 ft | 310 kts | 244° |
| 2026-05-05 02:43 | 42.52175 | -85.54240 | 15232 ft | 303 kts | 243° |
| 2026-05-05 02:43 | 42.51161 | -85.56711 | 15020 ft | 296 kts | 243° |
| 2026-05-05 02:43 | 42.50165 | -85.59140 | 14778 ft | 292 kts | 243° |
| 2026-05-05 02:43 | 42.49188 | -85.61520 | 14580 ft | 286 kts | 244° |
| 2026-05-05 02:44 | 42.48229 | -85.63852 | 14365 ft | 281 kts | 244° |
| 2026-05-05 02:44 | 42.47285 | -85.66149 | 14144 ft | 277 kts | 244° |
| 2026-05-05 02:44 | 42.46350 | -85.68421 | 13928 ft | 275 kts | 244° |
| 2026-05-05 02:44 | 42.45420 | -85.70681 | 13717 ft | 275 kts | 244° |
| 2026-05-05 02:45 | 42.44502 | -85.72910 | 13516 ft | 274 kts | 244° |
| 2026-05-05 02:45 | 42.43575 | -85.75161 | 13290 ft | 274 kts | 244° |
| 2026-05-05 02:45 | 42.42647 | -85.77410 | 13046 ft | 273 kts | 244° |
| 2026-05-05 02:45 | 42.41722 | -85.79652 | 12811 ft | 273 kts | 244° |
| 2026-05-05 02:46 | 42.40799 | -85.81887 | 12618 ft | 271 kts | 244° |
| 2026-05-05 02:46 | 42.39879 | -85.84112 | 12603 ft | 272 kts | 244° |
| 2026-05-05 02:46 | 42.38954 | -85.86349 | 12472 ft | 274 kts | 244° |
| 2026-05-05 02:46 | 42.37978 | -85.88712 | 12537 ft | 298 kts | 243° |
| 2026-05-05 02:47 | 42.36997 | -85.91080 | 12408 ft | 290 kts | 243° |
| 2026-05-05 02:47 | 42.36026 | -85.93420 | 12249 ft | 281 kts | 243° |
| 2026-05-05 02:47 | 42.35086 | -85.95684 | 12132 ft | 273 kts | 244° |
| 2026-05-05 02:47 | 42.34164 | -85.97903 | 12011 ft | 270 kts | 243° |
| 2026-05-05 02:48 | 42.33246 | -86.00111 | 11884 ft | 270 kts | 243° |
| 2026-05-05 02:48 | 42.32326 | -86.02323 | 11771 ft | 270 kts | 243° |
| 2026-05-05 02:48 | 42.31405 | -86.04534 | 11646 ft | 270 kts | 243° |
| 2026-05-05 02:48 | 42.30485 | -86.06742 | 11553 ft | 269 kts | 243° |
| 2026-05-05 02:49 | 42.29565 | -86.08950 | 11521 ft | 270 kts | 243° |
| 2026-05-05 02:49 | 42.28659 | -86.11123 | 11461 ft | 269 kts | 243° |
| 2026-05-05 02:49 | 42.27740 | -86.13325 | 11402 ft | 269 kts | 243° |
| 2026-05-05 02:49 | 42.26820 | -86.15527 | 11347 ft | 269 kts | 243° |
| 2026-05-05 02:50 | 42.25900 | -86.17725 | 11294 ft | 269 kts | 243° |
| 2026-05-05 02:50 | 42.24980 | -86.19924 | 11232 ft | 269 kts | 243° |
| 2026-05-05 02:50 | 42.24061 | -86.22119 | 11177 ft | 268 kts | 243° |
| 2026-05-05 02:50 | 42.23142 | -86.24313 | 11119 ft | 268 kts | 243° |
| 2026-05-05 02:51 | 42.22237 | -86.26471 | 11091 ft | 268 kts | 243° |
| 2026-05-05 02:51 | 42.21318 | -86.28660 | 11039 ft | 268 kts | 243° |
| 2026-05-05 02:51 | 42.20400 | -86.30846 | 10979 ft | 268 kts | 243° |
| 2026-05-05 02:51 | 42.19480 | -86.33034 | 10922 ft | 268 kts | 243° |
| 2026-05-05 02:52 | 42.18561 | -86.35220 | 10891 ft | 268 kts | 243° |
| 2026-05-05 02:52 | 42.17641 | -86.37406 | 10834 ft | 268 kts | 243° |
| 2026-05-05 02:52 | 42.16723 | -86.39585 | 10785 ft | 268 kts | 243° |
| 2026-05-05 02:52 | 42.15803 | -86.41769 | 10725 ft | 268 kts | 243° |
| 2026-05-05 02:53 | 42.14885 | -86.43945 | 10668 ft | 267 kts | 243° |
| 2026-05-05 02:53 | 42.13965 | -86.46122 | 10588 ft | 268 kts | 243° |
| 2026-05-05 02:53 | 42.13053 | -86.48282 | 10526 ft | 270 kts | 243° |
| 2026-05-05 02:53 | 42.12125 | -86.50477 | 10471 ft | 270 kts | 243° |
| 2026-05-05 02:54 | 42.11194 | -86.52677 | 10418 ft | 270 kts | 243° |
| 2026-05-05 02:54 | 42.10266 | -86.54871 | 10362 ft | 270 kts | 243° |
| 2026-05-05 02:54 | 42.09333 | -86.57071 | 10311 ft | 270 kts | 243° |
| 2026-05-05 02:54 | 42.08407 | -86.59256 | 10253 ft | 268 kts | 243° |
| 2026-05-05 02:55 | 42.07484 | -86.61431 | 10195 ft | 267 kts | 243° |
| 2026-05-05 02:55 | 42.06573 | -86.63576 | 10145 ft | 268 kts | 243° |
| 2026-05-05 02:55 | 42.05649 | -86.65750 | 10091 ft | 268 kts | 243° |
| 2026-05-05 02:55 | 42.04752 | -86.67859 | 10036 ft | 268 kts | 243° |
| 2026-05-05 02:56 | 42.03828 | -86.70030 | 9986 ft | 267 kts | 243° |
| 2026-05-05 02:56 | 42.02905 | -86.72199 | 9935 ft | 267 kts | 243° |
| 2026-05-05 02:56 | 42.01980 | -86.74368 | 9869 ft | 267 kts | 243° |
| 2026-05-05 02:56 | 42.01055 | -86.76536 | 9810 ft | 267 kts | 243° |
| 2026-05-05 02:57 | 42.00131 | -86.78701 | 9763 ft | 267 kts | 243° |
| 2026-05-05 02:57 | 41.99207 | -86.80865 | 9728 ft | 267 kts | 243° |
| 2026-05-05 02:57 | 41.98296 | -86.82996 | 9682 ft | 266 kts | 243° |
| 2026-05-05 02:57 | 41.97374 | -86.85150 | 9637 ft | 266 kts | 243° |
| 2026-05-05 02:58 | 41.96450 | -86.87310 | 9596 ft | 266 kts | 243° |
| 2026-05-05 02:58 | 41.95529 | -86.89459 | 9554 ft | 266 kts | 243° |
| 2026-05-05 02:58 | 41.94808 | -86.91708 | 9488 ft | 261 kts | 261° |
| 2026-05-05 02:58 | 41.94763 | -86.94131 | 9450 ft | 261 kts | 272° |
| 2026-05-05 02:59 | 41.94838 | -86.96570 | 9419 ft | 261 kts | 273° |
| 2026-05-05 02:59 | 41.94934 | -86.98996 | 9373 ft | 260 kts | 273° |
| 2026-05-05 02:59 | 41.95040 | -87.01383 | 9326 ft | 260 kts | 273° |
| 2026-05-05 02:59 | 41.95156 | -87.03804 | 9278 ft | 260 kts | 274° |
| 2026-05-05 03:00 | 41.95277 | -87.06228 | 9224 ft | 260 kts | 274° |
| 2026-05-05 03:00 | 41.95400 | -87.08647 | 9173 ft | 259 kts | 274° |
| 2026-05-05 03:00 | 41.95525 | -87.11066 | 9123 ft | 259 kts | 274° |
| 2026-05-05 03:00 | 41.95651 | -87.13480 | 9077 ft | 259 kts | 274° |
| 2026-05-05 03:01 | 41.95775 | -87.15886 | 9037 ft | 258 kts | 274° |
| 2026-05-05 03:01 | 41.95900 | -87.18295 | 9031 ft | 258 kts | 274° |
| 2026-05-05 03:01 | 41.96025 | -87.20701 | 9026 ft | 258 kts | 274° |
| 2026-05-05 03:01 | 41.96147 | -87.23081 | 9031 ft | 259 kts | 274° |
| 2026-05-05 03:02 | 41.96271 | -87.25490 | 9014 ft | 259 kts | 274° |
| 2026-05-05 03:02 | 41.96394 | -87.27899 | 9017 ft | 259 kts | 274° |
| 2026-05-05 03:02 | 41.96499 | -87.30304 | 8958 ft | 256 kts | 271° |
| 2026-05-05 03:02 | 41.96512 | -87.32685 | 8614 ft | 255 kts | 270° |
| 2026-05-05 03:03 | 41.96527 | -87.35065 | 8274 ft | 254 kts | 271° |
| 2026-05-05 03:03 | 41.96541 | -87.37425 | 7960 ft | 252 kts | 270° |
| 2026-05-05 03:03 | 41.96544 | -87.39774 | 7605 ft | 251 kts | 270° |
| 2026-05-05 03:03 | 41.96549 | -87.42083 | 7289 ft | 250 kts | 270° |
| 2026-05-05 03:04 | 41.96554 | -87.44410 | 6979 ft | 248 kts | 270° |
| 2026-05-05 03:04 | 41.96560 | -87.46698 | 6621 ft | 241 kts | 270° |
| 2026-05-05 03:04 | 41.96575 | -87.48903 | 6336 ft | 231 kts | 271° |
| 2026-05-05 03:04 | 41.96591 | -87.51015 | 6055 ft | 222 kts | 271° |
| 2026-05-05 03:05 | 41.96599 | -87.53059 | 5782 ft | 217 kts | 271° |
| 2026-05-05 03:05 | 41.96605 | -87.55086 | 5499 ft | 216 kts | 271° |
| 2026-05-05 03:05 | 41.96608 | -87.57102 | 5213 ft | 216 kts | 270° |
| 2026-05-05 03:05 | 41.96609 | -87.59087 | 4935 ft | 214 kts | 270° |
| 2026-05-05 03:06 | 41.96609 | -87.61070 | 4690 ft | 209 kts | 270° |
| 2026-05-05 03:06 | 41.96609 | -87.62990 | 4448 ft | 203 kts | 270° |
| 2026-05-05 03:06 | 41.96607 | -87.64856 | 4166 ft | 196 kts | 269° |
| 2026-05-05 03:06 | 41.96607 | -87.66651 | 3896 ft | 187 kts | 270° |
| 2026-05-05 03:07 | 41.96605 | -87.68340 | 3651 ft | 175 kts | 269° |
| 2026-05-05 03:07 | 41.96603 | -87.69926 | 3425 ft | 165 kts | 269° |
| 2026-05-05 03:07 | 41.96602 | -87.71428 | 3207 ft | 157 kts | 269° |
| 2026-05-05 03:07 | 41.96601 | -87.72839 | 3038 ft | 147 kts | 268° |
| 2026-05-05 03:08 | 41.96600 | -87.74186 | 2854 ft | 142 kts | 267° |
| 2026-05-05 03:08 | 41.96598 | -87.75484 | 2675 ft | 137 kts | 267° |
| 2026-05-05 03:08 | 41.96596 | -87.76737 | 2482 ft | 132 kts | 266° |
| 2026-05-05 03:08 | 41.96597 | -87.77971 | 2312 ft | 133 kts | 265° |
| 2026-05-05 03:09 | 41.96636 | -87.79227 | 2157 ft | 139 kts | 268° |
| 2026-05-05 03:09 | 41.96690 | -87.80549 | 2064 ft | 144 kts | 266° |
| 2026-05-05 03:09 | 41.96693 | -87.81919 | 1826 ft | 147 kts | 264° |
| 2026-05-05 03:09 | 41.96679 | -87.83292 | 1602 ft | 145 kts | 262° |
| 2026-05-05 03:10 | 41.96685 | -87.84619 | 1409 ft | 147 kts | 264° |
| 2026-05-05 03:10 | 41.96648 | -87.86026 | 1222 ft | 153 kts | 261° |
| 2026-05-05 03:10 | 41.96631 | -87.87418 | 968 ft | 147 kts | 263° |
| 2026-05-05 03:10 | 41.96591 | -87.88785 | 792 ft | 144 kts | 266° |
| 2026-05-05 03:11 | 41.96582 | -87.90132 | 690 ft | 145 kts | 266° |
| 2026-05-05 03:11 | 41.96573 | -87.91320 | 670 ft | 95 kts | 270° |
| 2026-05-05 03:11 | 41.96571 | -87.91937 | 671 ft | 55 kts | 269° |
| 2026-05-05 03:11 | 41.96572 | -87.92418 | 672 ft | 33 kts | 278° |
| 2026-05-05 03:12 | 41.96696 | -87.92535 | 671 ft | 22 kts | 358° |
| 2026-05-05 03:12 | 41.96862 | -87.92537 | 669 ft | 25 kts | 359° |
| 2026-05-05 03:12 | 41.97039 | -87.92536 | 671 ft | 26 kts | 360° |
| 2026-05-05 03:12 | 41.97154 | -87.92465 | 671 ft | 18 kts | 81° |
| 2026-05-05 03:13 | 41.97155 | -87.92293 | 671 ft | 20 kts | 90° |
| 2026-05-05 03:13 | 41.97156 | -87.92100 | 671 ft | 22 kts | 89° |
| 2026-05-05 03:13 | 41.97156 | -87.91890 | 671 ft | 23 kts | 89° |
| 2026-05-05 03:13 | 41.97156 | -87.91661 | 671 ft | 25 kts | 90° |
| 2026-05-05 03:14 | 41.97157 | -87.91418 | 671 ft | 25 kts | 90° |
| 2026-05-05 03:14 | 41.97157 | -87.91352 | 671 ft | 0 kts | 90° |
| 2026-05-05 03:14 | 41.97157 | -87.91348 | 671 ft | 2 kts | 90° |
| 2026-05-05 03:15 | 41.97163 | -87.91297 | 671 ft | 11 kts | 65° |
| 2026-05-05 03:15 | 41.97236 | -87.91175 | 671 ft | 20 kts | 51° |
| 2026-05-05 03:15 | 41.97289 | -87.90999 | 671 ft | 21 kts | 79° |
| 2026-05-05 03:15 | 41.97224 | -87.90855 | 671 ft | 18 kts | 131° |
| 2026-05-05 03:16 | 41.97178 | -87.90766 | 670 ft | 11 kts | 115° |
| 2026-05-05 03:16 | 41.97161 | -87.90711 | 671 ft | 5 kts | 109° |
| 2026-05-05 03:16 | 41.97152 | -87.90652 | 671 ft | 8 kts | 98° |
| 2026-05-05 03:16 | 41.97148 | -87.90571 | 671 ft | 10 kts | 81° |
| 2026-05-05 03:17 | 41.97199 | -87.90509 | 671 ft | 11 kts | 25° |
| 2026-05-05 03:17 | 41.97282 | -87.90491 | 671 ft | 13 kts | 1° |
| 2026-05-05 03:17 | 41.97324 | -87.90508 | 671 ft | 3 kts | 288° |
| 2026-05-05 03:17 | 41.97326 | -87.90537 | 671 ft | 3 kts | 271° |
| 2026-05-05 03:18 | 41.97326 | -87.90546 | 671 ft | 0 kts | 269° |